sensor_id;sensor_type;location;lat;lon;timestamp;temperature;humidity
44775;DHT22;31340;51.402;0.016;2024-01-30T00:02:19;12.80;99.90
44775;DHT22;31340;51.402;0.016;2024-01-30T00:04:47;12.90;99.90
44775;DHT22;31340;51.402;0.016;2024-01-30T00:07:15;12.90;99.90
44775;DHT22;31340;51.402;0.016;2024-01-30T00:09:46;12.90;99.90
44775;DHT22;31340;51.402;0.016;2024-01-30T00:12:14;12.90;99.90
44775;DHT22;31340;51.402;0.016;2024-01-30T00:14:42;12.90;99.90
44775;DHT22;31340;51.402;0.016;2024-01-30T00:17:13;12.90;99.90
44775;DHT22;31340;51.402;0.016;2024-01-30T00:19:41;12.90;99.90
44775;DHT22;31340;51.402;0.016;2024-01-30T00:22:08;12.90;99.90
44775;DHT22;31340;51.402;0.016;2024-01-30T00:24:36;13.00;99.90
44775;DHT22;31340;51.402;0.016;2024-01-30T00:27:04;13.00;99.90
44775;DHT22;31340;51.402;0.016;2024-01-30T00:29:32;13.00;99.90
44775;DHT22;31340;51.402;0.016;2024-01-30T00:32:01;13.10;99.90
44775;DHT22;31340;51.402;0.016;2024-01-30T00:34:29;13.10;99.90
44775;DHT22;31340;51.402;0.016;2024-01-30T00:36:57;13.10;99.90
44775;DHT22;31340;51.402;0.016;2024-01-30T00:39:25;13.10;99.90
44775;DHT22;31340;51.402;0.016;2024-01-30T00:41:53;13.10;99.90
44775;DHT22;31340;51.402;0.016;2024-01-30T00:44:20;13.20;99.90
44775;DHT22;31340;51.402;0.016;2024-01-30T00:46:48;13.20;99.90
44775;DHT22;31340;51.402;0.016;2024-01-30T00:49:16;13.20;99.90
44775;DHT22;31340;51.402;0.016;2024-01-30T00:51:44;13.30;99.90
44775;DHT22;31340;51.402;0.016;2024-01-30T00:54:12;13.30;99.90
44775;DHT22;31340;51.402;0.016;2024-01-30T00:56:40;13.30;99.90
44775;DHT22;31340;51.402;0.016;2024-01-30T00:59:08;13.30;99.90
44775;DHT22;31340;51.402;0.016;2024-01-30T01:01:36;13.30;99.90
44775;DHT22;31340;51.402;0.016;2024-01-30T01:04:04;13.40;99.90
44775;DHT22;31340;51.402;0.016;2024-01-30T01:06:32;13.30;99.90
44775;DHT22;31340;51.402;0.016;2024-01-30T01:08:59;13.30;99.90
44775;DHT22;31340;51.402;0.016;2024-01-30T01:11:31;13.40;99.90
44775;DHT22;31340;51.402;0.016;2024-01-30T01:13:59;13.40;99.90
44775;DHT22;31340;51.402;0.016;2024-01-30T01:16:27;13.30;99.90
44775;DHT22;31340;51.402;0.016;2024-01-30T01:18:55;13.30;99.90
44775;DHT22;31340;51.402;0.016;2024-01-30T01:21:23;13.30;99.90
44775;DHT22;31340;51.402;0.016;2024-01-30T01:23:52;13.40;99.90
44775;DHT22;31340;51.402;0.016;2024-01-30T01:26:20;13.40;99.90
44775;DHT22;31340;51.402;0.016;2024-01-30T01:28:48;13.40;99.90
44775;DHT22;31340;51.402;0.016;2024-01-30T01:31:17;13.40;99.90
44775;DHT22;31340;51.402;0.016;2024-01-30T01:33:46;13.40;99.90
44775;DHT22;31340;51.402;0.016;2024-01-30T01:36:14;13.40;99.90
44775;DHT22;31340;51.402;0.016;2024-01-30T01:38:42;13.30;99.90
44775;DHT22;31340;51.402;0.016;2024-01-30T01:41:10;13.30;99.90
44775;DHT22;31340;51.402;0.016;2024-01-30T01:43:38;13.30;99.90
44775;DHT22;31340;51.402;0.016;2024-01-30T01:46:07;13.30;99.90
44775;DHT22;31340;51.402;0.016;2024-01-30T01:48:36;13.30;99.90
44775;DHT22;31340;51.402;0.016;2024-01-30T01:51:05;13.30;99.90
44775;DHT22;31340;51.402;0.016;2024-01-30T01:53:34;13.30;99.90
44775;DHT22;31340;51.402;0.016;2024-01-30T01:56:02;13.20;99.90
44775;DHT22;31340;51.402;0.016;2024-01-30T01:58:30;13.20;99.90
44775;DHT22;31340;51.402;0.016;2024-01-30T02:00:59;13.20;99.90
44775;DHT22;31340;51.402;0.016;2024-01-30T02:03:27;13.10;99.90
44775;DHT22;31340;51.402;0.016;2024-01-30T02:05:55;13.10;99.90
44775;DHT22;31340;51.402;0.016;2024-01-30T02:08:24;13.10;99.90
44775;DHT22;31340;51.402;0.016;2024-01-30T02:10:52;13.00;99.90
44775;DHT22;31340;51.402;0.016;2024-01-30T02:13:21;13.00;99.90
44775;DHT22;31340;51.402;0.016;2024-01-30T02:15:51;13.00;99.90
44775;DHT22;31340;51.402;0.016;2024-01-30T02:18:20;12.90;99.90
44775;DHT22;31340;51.402;0.016;2024-01-30T02:21:08;12.90;99.90
44775;DHT22;31340;51.402;0.016;2024-01-30T02:23:36;12.80;99.90
44775;DHT22;31340;51.402;0.016;2024-01-30T02:26:05;12.80;99.90
44775;DHT22;31340;51.402;0.016;2024-01-30T02:28:32;12.70;99.90
44775;DHT22;31340;51.402;0.016;2024-01-30T02:31:00;12.70;99.90
44775;DHT22;31340;51.402;0.016;2024-01-30T02:33:28;12.60;99.90
44775;DHT22;31340;51.402;0.016;2024-01-30T02:35:56;12.60;99.90
44775;DHT22;31340;51.402;0.016;2024-01-30T02:38:24;12.50;99.90
44775;DHT22;31340;51.402;0.016;2024-01-30T02:40:54;12.40;99.90
44775;DHT22;31340;51.402;0.016;2024-01-30T02:43:23;12.40;99.90
44775;DHT22;31340;51.402;0.016;2024-01-30T02:45:50;12.40;99.90
44775;DHT22;31340;51.402;0.016;2024-01-30T02:48:18;12.30;99.90
44775;DHT22;31340;51.402;0.016;2024-01-30T02:50:46;12.30;99.90
44775;DHT22;31340;51.402;0.016;2024-01-30T02:53:15;12.30;99.90
44775;DHT22;31340;51.402;0.016;2024-01-30T02:55:43;12.20;99.90
44775;DHT22;31340;51.402;0.016;2024-01-30T02:58:10;12.20;99.90
44775;DHT22;31340;51.402;0.016;2024-01-30T03:00:38;12.20;99.90
44775;DHT22;31340;51.402;0.016;2024-01-30T03:03:07;12.80;99.90
44775;DHT22;31340;51.402;0.016;2024-01-30T03:05:34;12.10;99.90
44775;DHT22;31340;51.402;0.016;2024-01-30T03:08:03;12.10;99.90
44775;DHT22;31340;51.402;0.016;2024-01-30T03:10:31;12.00;99.90
44775;DHT22;31340;51.402;0.016;2024-01-30T03:12:59;12.00;99.90
44775;DHT22;31340;51.402;0.016;2024-01-30T03:15:27;12.00;99.90
44775;DHT22;31340;51.402;0.016;2024-01-30T03:17:54;11.90;99.90
44775;DHT22;31340;51.402;0.016;2024-01-30T03:20:22;11.90;99.90
44775;DHT22;31340;51.402;0.016;2024-01-30T03:22:50;11.90;99.90
44775;DHT22;31340;51.402;0.016;2024-01-30T03:25:18;11.90;99.90
44775;DHT22;31340;51.402;0.016;2024-01-30T03:27:46;11.90;99.90
44775;DHT22;31340;51.402;0.016;2024-01-30T03:30:14;11.90;99.90
44775;DHT22;31340;51.402;0.016;2024-01-30T03:32:42;11.90;99.90
44775;DHT22;31340;51.402;0.016;2024-01-30T03:35:10;11.90;99.90
44775;DHT22;31340;51.402;0.016;2024-01-30T03:37:38;11.80;99.90
44775;DHT22;31340;51.402;0.016;2024-01-30T03:40:06;11.80;99.90
44775;DHT22;31340;51.402;0.016;2024-01-30T03:42:34;11.80;99.90
44775;DHT22;31340;51.402;0.016;2024-01-30T03:45:02;11.80;99.90
44775;DHT22;31340;51.402;0.016;2024-01-30T03:47:31;11.70;99.90
44775;DHT22;31340;51.402;0.016;2024-01-30T03:49:59;11.70;99.90
44775;DHT22;31340;51.402;0.016;2024-01-30T03:52:27;11.70;99.90
44775;DHT22;31340;51.402;0.016;2024-01-30T03:54:55;11.70;99.90
44775;DHT22;31340;51.402;0.016;2024-01-30T03:57:22;11.70;99.90
44775;DHT22;31340;51.402;0.016;2024-01-30T03:59:50;11.70;99.90
44775;DHT22;31340;51.402;0.016;2024-01-30T04:02:18;11.70;99.90
44775;DHT22;31340;51.402;0.016;2024-01-30T04:04:46;11.60;99.90
44775;DHT22;31340;51.402;0.016;2024-01-30T04:07:14;11.60;99.90
44775;DHT22;31340;51.402;0.016;2024-01-30T04:09:42;11.60;99.90
44775;DHT22;31340;51.402;0.016;2024-01-30T04:12:10;11.60;99.90
44775;DHT22;31340;51.402;0.016;2024-01-30T04:14:39;11.60;99.90
44775;DHT22;31340;51.402;0.016;2024-01-30T04:17:06;11.50;99.90
44775;DHT22;31340;51.402;0.016;2024-01-30T04:19:37;11.50;99.90
44775;DHT22;31340;51.402;0.016;2024-01-30T04:22:06;11.50;99.90
44775;DHT22;31340;51.402;0.016;2024-01-30T04:24:34;11.50;99.90
44775;DHT22;31340;51.402;0.016;2024-01-30T04:27:02;11.50;99.90
44775;DHT22;31340;51.402;0.016;2024-01-30T04:29:30;11.40;99.90
44775;DHT22;31340;51.402;0.016;2024-01-30T04:31:59;11.40;99.90
44775;DHT22;31340;51.402;0.016;2024-01-30T04:34:27;11.40;99.90
44775;DHT22;31340;51.402;0.016;2024-01-30T04:36:55;11.40;99.90
44775;DHT22;31340;51.402;0.016;2024-01-30T04:39:22;11.40;99.90
44775;DHT22;31340;51.402;0.016;2024-01-30T04:41:50;11.30;99.90
44775;DHT22;31340;51.402;0.016;2024-01-30T04:44:17;11.30;99.90
44775;DHT22;31340;51.402;0.016;2024-01-30T04:46:45;11.30;99.90
44775;DHT22;31340;51.402;0.016;2024-01-30T04:49:13;11.30;99.90
44775;DHT22;31340;51.402;0.016;2024-01-30T04:51:41;11.30;99.90
44775;DHT22;31340;51.402;0.016;2024-01-30T04:54:09;11.30;99.90
44775;DHT22;31340;51.402;0.016;2024-01-30T04:56:37;11.30;99.90
44775;DHT22;31340;51.402;0.016;2024-01-30T04:59:06;11.20;99.90
44775;DHT22;31340;51.402;0.016;2024-01-30T05:01:35;11.20;99.90
44775;DHT22;31340;51.402;0.016;2024-01-30T05:04:03;11.20;99.90
44775;DHT22;31340;51.402;0.016;2024-01-30T05:06:31;11.20;99.90
44775;DHT22;31340;51.402;0.016;2024-01-30T05:08:59;11.20;99.90
44775;DHT22;31340;51.402;0.016;2024-01-30T05:11:26;11.20;99.90
44775;DHT22;31340;51.402;0.016;2024-01-30T05:13:54;11.20;99.90
44775;DHT22;31340;51.402;0.016;2024-01-30T05:16:21;11.20;99.90
44775;DHT22;31340;51.402;0.016;2024-01-30T05:18:49;11.20;99.90
44775;DHT22;31340;51.402;0.016;2024-01-30T05:21:17;11.20;99.90
44775;DHT22;31340;51.402;0.016;2024-01-30T05:23:45;11.20;99.90
44775;DHT22;31340;51.402;0.016;2024-01-30T05:26:13;11.20;99.90
44775;DHT22;31340;51.402;0.016;2024-01-30T05:28:41;11.20;99.90
44775;DHT22;31340;51.402;0.016;2024-01-30T05:31:09;11.20;99.90
44775;DHT22;31340;51.402;0.016;2024-01-30T05:33:37;11.20;99.90
44775;DHT22;31340;51.402;0.016;2024-01-30T05:36:05;11.20;99.90
44775;DHT22;31340;51.402;0.016;2024-01-30T05:38:33;11.20;99.90
44775;DHT22;31340;51.402;0.016;2024-01-30T05:41:04;11.20;99.90
44775;DHT22;31340;51.402;0.016;2024-01-30T05:43:31;11.20;99.90
44775;DHT22;31340;51.402;0.016;2024-01-30T05:45:59;11.20;99.90
44775;DHT22;31340;51.402;0.016;2024-01-30T05:48:27;11.20;99.90
44775;DHT22;31340;51.402;0.016;2024-01-30T05:50:54;11.20;99.90
44775;DHT22;31340;51.402;0.016;2024-01-30T05:53:22;11.20;99.90
44775;DHT22;31340;51.402;0.016;2024-01-30T05:55:50;11.20;99.90
44775;DHT22;31340;51.402;0.016;2024-01-30T05:58:18;11.20;99.90
44775;DHT22;31340;51.402;0.016;2024-01-30T06:00:46;11.20;99.90
44775;DHT22;31340;51.402;0.016;2024-01-30T06:03:13;11.20;99.90
44775;DHT22;31340;51.402;0.016;2024-01-30T06:05:41;11.20;99.90
44775;DHT22;31340;51.402;0.016;2024-01-30T06:08:10;11.10;99.90
44775;DHT22;31340;51.402;0.016;2024-01-30T06:10:38;11.10;99.90
44775;DHT22;31340;51.402;0.016;2024-01-30T06:13:06;11.10;99.90
44775;DHT22;31340;51.402;0.016;2024-01-30T06:15:34;11.10;99.90
44775;DHT22;31340;51.402;0.016;2024-01-30T06:18:02;11.10;99.90
44775;DHT22;31340;51.402;0.016;2024-01-30T06:20:30;11.00;99.90
44775;DHT22;31340;51.402;0.016;2024-01-30T06:22:58;11.00;99.90
44775;DHT22;31340;51.402;0.016;2024-01-30T06:25:26;11.00;99.90
44775;DHT22;31340;51.402;0.016;2024-01-30T06:27:54;11.00;99.90
44775;DHT22;31340;51.402;0.016;2024-01-30T06:30:22;10.90;99.90
44775;DHT22;31340;51.402;0.016;2024-01-30T06:32:50;10.90;99.90
44775;DHT22;31340;51.402;0.016;2024-01-30T06:35:18;10.90;99.90
44775;DHT22;31340;51.402;0.016;2024-01-30T06:37:47;10.90;99.90
44775;DHT22;31340;51.402;0.016;2024-01-30T06:40:14;10.80;99.90
44775;DHT22;31340;51.402;0.016;2024-01-30T06:42:42;10.80;99.90
44775;DHT22;31340;51.402;0.016;2024-01-30T06:45:10;10.80;99.90
44775;DHT22;31340;51.402;0.016;2024-01-30T06:47:38;10.70;99.90
44775;DHT22;31340;51.402;0.016;2024-01-30T06:50:07;10.70;99.90
44775;DHT22;31340;51.402;0.016;2024-01-30T06:52:35;10.60;99.90
44775;DHT22;31340;51.402;0.016;2024-01-30T06:55:03;10.60;99.90
44775;DHT22;31340;51.402;0.016;2024-01-30T06:57:31;10.50;99.90
44775;DHT22;31340;51.402;0.016;2024-01-30T07:00:00;10.60;99.90
44775;DHT22;31340;51.402;0.016;2024-01-30T07:02:28;10.50;99.90
44775;DHT22;31340;51.402;0.016;2024-01-30T07:04:56;10.50;99.90
44775;DHT22;31340;51.402;0.016;2024-01-30T07:07:24;10.40;99.90
44775;DHT22;31340;51.402;0.016;2024-01-30T07:09:52;10.40;99.90
44775;DHT22;31340;51.402;0.016;2024-01-30T07:12:24;10.40;99.90
44775;DHT22;31340;51.402;0.016;2024-01-30T07:14:53;10.40;99.90
44775;DHT22;31340;51.402;0.016;2024-01-30T07:17:23;10.30;99.90
44775;DHT22;31340;51.402;0.016;2024-01-30T07:19:50;10.30;99.90
44775;DHT22;31340;51.402;0.016;2024-01-30T07:22:18;10.30;99.90
44775;DHT22;31340;51.402;0.016;2024-01-30T07:24:46;10.30;99.90
44775;DHT22;31340;51.402;0.016;2024-01-30T07:27:15;10.30;99.90
44775;DHT22;31340;51.402;0.016;2024-01-30T07:29:47;10.20;99.90
44775;DHT22;31340;51.402;0.016;2024-01-30T07:32:14;10.20;99.90
44775;DHT22;31340;51.402;0.016;2024-01-30T07:34:42;10.20;99.90
44775;DHT22;31340;51.402;0.016;2024-01-30T07:37:30;10.20;99.90
44775;DHT22;31340;51.402;0.016;2024-01-30T07:39:58;10.10;99.90
44775;DHT22;31340;51.402;0.016;2024-01-30T07:42:26;10.10;99.90
44775;DHT22;31340;51.402;0.016;2024-01-30T07:44:54;10.00;99.90
44775;DHT22;31340;51.402;0.016;2024-01-30T07:47:21;10.00;99.90
44775;DHT22;31340;51.402;0.016;2024-01-30T07:49:49;10.00;99.90
44775;DHT22;31340;51.402;0.016;2024-01-30T07:52:17;10.00;99.90
44775;DHT22;31340;51.402;0.016;2024-01-30T07:54:45;10.00;99.90
44775;DHT22;31340;51.402;0.016;2024-01-30T07:57:13;10.00;99.90
44775;DHT22;31340;51.402;0.016;2024-01-30T07:59:42;10.00;99.90
44775;DHT22;31340;51.402;0.016;2024-01-30T08:02:14;9.90;99.90
44775;DHT22;31340;51.402;0.016;2024-01-30T08:04:42;9.90;99.90
44775;DHT22;31340;51.402;0.016;2024-01-30T08:07:10;9.90;99.90
44775;DHT22;31340;51.402;0.016;2024-01-30T08:09:37;9.90;99.90
44775;DHT22;31340;51.402;0.016;2024-01-30T08:12:06;9.90;99.90
44775;DHT22;31340;51.402;0.016;2024-01-30T08:14:35;9.90;99.90
44775;DHT22;31340;51.402;0.016;2024-01-30T08:17:03;9.90;99.90
44775;DHT22;31340;51.402;0.016;2024-01-30T08:19:30;9.90;99.90
44775;DHT22;31340;51.402;0.016;2024-01-30T08:21:58;9.90;99.90
44775;DHT22;31340;51.402;0.016;2024-01-30T08:24:26;9.90;99.90
44775;DHT22;31340;51.402;0.016;2024-01-30T08:26:53;9.90;99.90
44775;DHT22;31340;51.402;0.016;2024-01-30T08:29:21;9.90;99.90
44775;DHT22;31340;51.402;0.016;2024-01-30T08:31:48;9.90;99.90
44775;DHT22;31340;51.402;0.016;2024-01-30T08:34:16;9.90;99.90
44775;DHT22;31340;51.402;0.016;2024-01-30T08:36:44;9.90;99.90
44775;DHT22;31340;51.402;0.016;2024-01-30T08:39:12;9.90;99.90
44775;DHT22;31340;51.402;0.016;2024-01-30T08:41:40;9.90;99.90
44775;DHT22;31340;51.402;0.016;2024-01-30T08:44:07;9.90;99.90
44775;DHT22;31340;51.402;0.016;2024-01-30T08:46:35;9.90;99.90
44775;DHT22;31340;51.402;0.016;2024-01-30T08:49:06;9.90;99.90
44775;DHT22;31340;51.402;0.016;2024-01-30T08:51:34;10.00;99.90
44775;DHT22;31340;51.402;0.016;2024-01-30T08:54:02;10.00;99.90
44775;DHT22;31340;51.402;0.016;2024-01-30T08:56:30;10.00;99.90
44775;DHT22;31340;51.402;0.016;2024-01-30T08:58:57;9.90;99.90
44775;DHT22;31340;51.402;0.016;2024-01-30T09:01:25;9.90;99.90
44775;DHT22;31340;51.402;0.016;2024-01-30T09:03:55;10.00;99.90
44775;DHT22;31340;51.402;0.016;2024-01-30T09:06:24;10.00;99.90
44775;DHT22;31340;51.402;0.016;2024-01-30T09:08:55;10.00;99.90
44775;DHT22;31340;51.402;0.016;2024-01-30T09:11:22;10.00;99.90
44775;DHT22;31340;51.402;0.016;2024-01-30T09:13:50;10.00;99.90
44775;DHT22;31340;51.402;0.016;2024-01-30T09:16:18;10.10;99.90
44775;DHT22;31340;51.402;0.016;2024-01-30T09:18:46;10.10;99.90
44775;DHT22;31340;51.402;0.016;2024-01-30T09:21:14;10.10;99.90
44775;DHT22;31340;51.402;0.016;2024-01-30T09:23:41;10.10;99.90
44775;DHT22;31340;51.402;0.016;2024-01-30T09:26:09;10.20;99.90
44775;DHT22;31340;51.402;0.016;2024-01-30T09:28:37;10.20;99.90
44775;DHT22;31340;51.402;0.016;2024-01-30T09:31:10;10.20;99.90
44775;DHT22;31340;51.402;0.016;2024-01-30T09:33:38;10.30;99.90
44775;DHT22;31340;51.402;0.016;2024-01-30T09:36:07;10.20;99.90
44775;DHT22;31340;51.402;0.016;2024-01-30T09:38:35;10.30;99.90
44775;DHT22;31340;51.402;0.016;2024-01-30T09:41:09;10.30;99.90
44775;DHT22;31340;51.402;0.016;2024-01-30T09:43:38;10.30;99.90
44775;DHT22;31340;51.402;0.016;2024-01-30T09:46:11;10.30;99.90
44775;DHT22;31340;51.402;0.016;2024-01-30T09:48:41;10.40;99.90
44775;DHT22;31340;51.402;0.016;2024-01-30T09:51:11;10.40;99.90
44775;DHT22;31340;51.402;0.016;2024-01-30T09:53:41;10.40;99.90
44775;DHT22;31340;51.402;0.016;2024-01-30T09:56:11;10.40;99.90
44775;DHT22;31340;51.402;0.016;2024-01-30T09:58:39;10.50;99.90
44775;DHT22;31340;51.402;0.016;2024-01-30T10:01:07;10.40;99.90
44775;DHT22;31340;51.402;0.016;2024-01-30T10:03:35;10.50;99.90
44775;DHT22;31340;51.402;0.016;2024-01-30T10:06:03;10.50;99.90
44775;DHT22;31340;51.402;0.016;2024-01-30T10:08:31;10.50;99.90
44775;DHT22;31340;51.402;0.016;2024-01-30T10:10:58;10.60;99.90
44775;DHT22;31340;51.402;0.016;2024-01-30T10:13:26;10.60;99.90
44775;DHT22;31340;51.402;0.016;2024-01-30T10:15:55;10.60;99.90
44775;DHT22;31340;51.402;0.016;2024-01-30T10:18:22;10.60;99.90
44775;DHT22;31340;51.402;0.016;2024-01-30T10:20:51;10.60;99.90
44775;DHT22;31340;51.402;0.016;2024-01-30T10:23:19;10.70;99.90
44775;DHT22;31340;51.402;0.016;2024-01-30T10:25:47;10.70;99.90
44775;DHT22;31340;51.402;0.016;2024-01-30T10:28:15;10.70;99.90
44775;DHT22;31340;51.402;0.016;2024-01-30T10:30:42;10.60;99.90
44775;DHT22;31340;51.402;0.016;2024-01-30T10:33:10;10.70;99.90
44775;DHT22;31340;51.402;0.016;2024-01-30T10:35:38;10.70;99.90
44775;DHT22;31340;51.402;0.016;2024-01-30T10:38:09;10.70;99.90
44775;DHT22;31340;51.402;0.016;2024-01-30T10:40:40;10.80;99.90
44775;DHT22;31340;51.402;0.016;2024-01-30T10:43:10;10.80;99.90
44775;DHT22;31340;51.402;0.016;2024-01-30T10:45:40;10.80;99.90
44775;DHT22;31340;51.402;0.016;2024-01-30T10:48:13;10.80;99.90
44775;DHT22;31340;51.402;0.016;2024-01-30T10:50:42;10.90;99.90
44775;DHT22;31340;51.402;0.016;2024-01-30T10:53:21;10.90;99.90
44775;DHT22;31340;51.402;0.016;2024-01-30T10:55:51;10.90;99.90
44775;DHT22;31340;51.402;0.016;2024-01-30T10:58:20;10.90;99.90
44775;DHT22;31340;51.402;0.016;2024-01-30T11:00:50;10.90;99.90
44775;DHT22;31340;51.402;0.016;2024-01-30T11:03:18;10.90;99.90
44775;DHT22;31340;51.402;0.016;2024-01-30T11:05:49;10.90;99.90
44775;DHT22;31340;51.402;0.016;2024-01-30T11:08:25;11.00;99.90
44775;DHT22;31340;51.402;0.016;2024-01-30T11:10:56;11.00;99.90
44775;DHT22;31340;51.402;0.016;2024-01-30T11:13:29;11.00;99.90
44775;DHT22;31340;51.402;0.016;2024-01-30T11:16:00;11.00;99.90
44775;DHT22;31340;51.402;0.016;2024-01-30T11:18:30;11.00;99.90
44775;DHT22;31340;51.402;0.016;2024-01-30T11:20:59;11.00;99.90
44775;DHT22;31340;51.402;0.016;2024-01-30T11:23:29;11.00;99.90
44775;DHT22;31340;51.402;0.016;2024-01-30T11:25:57;11.00;99.90
44775;DHT22;31340;51.402;0.016;2024-01-30T11:28:32;11.00;99.90
44775;DHT22;31340;51.402;0.016;2024-01-30T11:31:05;11.00;99.90
44775;DHT22;31340;51.402;0.016;2024-01-30T11:33:35;11.00;99.90
44775;DHT22;31340;51.402;0.016;2024-01-30T11:36:04;10.90;99.90
44775;DHT22;31340;51.402;0.016;2024-01-30T11:38:34;10.90;99.90
44775;DHT22;31340;51.402;0.016;2024-01-30T11:41:03;10.90;99.90
44775;DHT22;31340;51.402;0.016;2024-01-30T11:43:31;10.90;99.90
44775;DHT22;31340;51.402;0.016;2024-01-30T11:46:01;10.90;99.90
44775;DHT22;31340;51.402;0.016;2024-01-30T11:48:30;10.90;99.90
44775;DHT22;31340;51.402;0.016;2024-01-30T11:50:57;10.90;99.90
44775;DHT22;31340;51.402;0.016;2024-01-30T11:53:25;10.90;99.90
44775;DHT22;31340;51.402;0.016;2024-01-30T11:55:52;10.90;99.90
44775;DHT22;31340;51.402;0.016;2024-01-30T11:58:25;10.80;99.90
44775;DHT22;31340;51.402;0.016;2024-01-30T12:00:54;10.80;99.90
44775;DHT22;31340;51.402;0.016;2024-01-30T12:03:23;10.80;99.90
44775;DHT22;31340;51.402;0.016;2024-01-30T12:05:57;10.80;99.90
44775;DHT22;31340;51.402;0.016;2024-01-30T12:08:29;10.80;99.90
44775;DHT22;31340;51.402;0.016;2024-01-30T12:11:00;10.80;99.90
44775;DHT22;31340;51.402;0.016;2024-01-30T12:13:33;10.70;99.90
44775;DHT22;31340;51.402;0.016;2024-01-30T12:16:01;10.70;99.90
44775;DHT22;31340;51.402;0.016;2024-01-30T12:18:29;10.70;99.90
44775;DHT22;31340;51.402;0.016;2024-01-30T12:21:01;10.70;99.90
44775;DHT22;31340;51.402;0.016;2024-01-30T12:23:29;10.70;99.90
44775;DHT22;31340;51.402;0.016;2024-01-30T12:25:58;10.70;99.90
44775;DHT22;31340;51.402;0.016;2024-01-30T12:28:26;10.70;99.90
44775;DHT22;31340;51.402;0.016;2024-01-30T12:31:04;10.60;99.90
44775;DHT22;31340;51.402;0.016;2024-01-30T12:33:31;10.70;99.90
44775;DHT22;31340;51.402;0.016;2024-01-30T12:36:04;10.70;99.90
44775;DHT22;31340;51.402;0.016;2024-01-30T12:38:32;10.70;99.90
44775;DHT22;31340;51.402;0.016;2024-01-30T12:41:00;10.70;99.90
44775;DHT22;31340;51.402;0.016;2024-01-30T12:43:29;10.60;99.90
44775;DHT22;31340;51.402;0.016;2024-01-30T12:46:05;10.60;99.90
44775;DHT22;31340;51.402;0.016;2024-01-30T12:48:33;10.60;99.90
44775;DHT22;31340;51.402;0.016;2024-01-30T12:51:01;10.70;99.90
44775;DHT22;31340;51.402;0.016;2024-01-30T12:53:29;10.60;99.90
44775;DHT22;31340;51.402;0.016;2024-01-30T12:55:57;10.60;99.90
44775;DHT22;31340;51.402;0.016;2024-01-30T12:58:25;10.60;99.90
44775;DHT22;31340;51.402;0.016;2024-01-30T13:00:53;10.60;99.90
44775;DHT22;31340;51.402;0.016;2024-01-30T13:03:22;10.60;99.90
44775;DHT22;31340;51.402;0.016;2024-01-30T13:05:49;10.60;99.90
44775;DHT22;31340;51.402;0.016;2024-01-30T13:08:17;10.60;99.90
44775;DHT22;31340;51.402;0.016;2024-01-30T13:10:45;10.60;99.90
44775;DHT22;31340;51.402;0.016;2024-01-30T13:13:16;10.60;99.90
44775;DHT22;31340;51.402;0.016;2024-01-30T13:15:48;10.60;99.90
44775;DHT22;31340;51.402;0.016;2024-01-30T13:18:16;10.60;99.90
44775;DHT22;31340;51.402;0.016;2024-01-30T13:20:43;10.60;99.90
44775;DHT22;31340;51.402;0.016;2024-01-30T13:23:11;10.60;99.90
44775;DHT22;31340;51.402;0.016;2024-01-30T13:25:39;10.60;99.90
44775;DHT22;31340;51.402;0.016;2024-01-30T13:28:06;10.60;99.90
44775;DHT22;31340;51.402;0.016;2024-01-30T13:30:34;10.70;99.90
44775;DHT22;31340;51.402;0.016;2024-01-30T13:33:03;10.70;99.90
44775;DHT22;31340;51.402;0.016;2024-01-30T13:35:31;10.70;99.90
44775;DHT22;31340;51.402;0.016;2024-01-30T13:37:59;10.70;99.90
44775;DHT22;31340;51.402;0.016;2024-01-30T13:40:27;10.70;99.90
44775;DHT22;31340;51.402;0.016;2024-01-30T13:42:55;10.80;99.90
44775;DHT22;31340;51.402;0.016;2024-01-30T13:45:23;10.70;99.90
44775;DHT22;31340;51.402;0.016;2024-01-30T13:47:51;10.80;99.90
44775;DHT22;31340;51.402;0.016;2024-01-30T13:50:19;10.80;99.90
44775;DHT22;31340;51.402;0.016;2024-01-30T13:52:48;10.80;99.90
44775;DHT22;31340;51.402;0.016;2024-01-30T13:55:16;10.80;99.90
44775;DHT22;31340;51.402;0.016;2024-01-30T13:57:44;10.80;99.90
44775;DHT22;31340;51.402;0.016;2024-01-30T14:00:14;10.80;99.90
44775;DHT22;31340;51.402;0.016;2024-01-30T14:02:44;10.90;99.90
44775;DHT22;31340;51.402;0.016;2024-01-30T14:05:11;10.90;99.90
44775;DHT22;31340;51.402;0.016;2024-01-30T14:07:39;10.90;99.90
44775;DHT22;31340;51.402;0.016;2024-01-30T14:10:10;10.90;99.90
44775;DHT22;31340;51.402;0.016;2024-01-30T14:12:43;10.90;99.90
44775;DHT22;31340;51.402;0.016;2024-01-30T14:15:16;10.90;99.90
44775;DHT22;31340;51.402;0.016;2024-01-30T14:17:55;10.90;99.90
44775;DHT22;31340;51.402;0.016;2024-01-30T14:20:24;10.90;99.90
44775;DHT22;31340;51.402;0.016;2024-01-30T14:22:52;10.90;99.90
44775;DHT22;31340;51.402;0.016;2024-01-30T14:25:23;10.90;99.90
44775;DHT22;31340;51.402;0.016;2024-01-30T14:27:51;10.90;99.90
44775;DHT22;31340;51.402;0.016;2024-01-30T14:30:19;10.90;99.90
44775;DHT22;31340;51.402;0.016;2024-01-30T14:32:47;10.90;99.90
44775;DHT22;31340;51.402;0.016;2024-01-30T14:35:16;10.90;99.90
44775;DHT22;31340;51.402;0.016;2024-01-30T14:37:44;10.90;99.90
44775;DHT22;31340;51.402;0.016;2024-01-30T14:40:12;10.90;99.90
44775;DHT22;31340;51.402;0.016;2024-01-30T14:42:40;10.90;99.90
44775;DHT22;31340;51.402;0.016;2024-01-30T14:45:08;10.90;99.90
44775;DHT22;31340;51.402;0.016;2024-01-30T14:47:37;10.90;99.90
44775;DHT22;31340;51.402;0.016;2024-01-30T14:50:05;10.90;99.90
44775;DHT22;31340;51.402;0.016;2024-01-30T14:52:36;10.90;99.90
44775;DHT22;31340;51.402;0.016;2024-01-30T14:55:05;10.90;99.90
44775;DHT22;31340;51.402;0.016;2024-01-30T14:57:33;10.90;99.90
44775;DHT22;31340;51.402;0.016;2024-01-30T15:00:02;10.90;99.90
44775;DHT22;31340;51.402;0.016;2024-01-30T15:02:30;11.00;99.90
44775;DHT22;31340;51.402;0.016;2024-01-30T15:04:59;10.90;99.90
44775;DHT22;31340;51.402;0.016;2024-01-30T15:07:27;10.90;99.90
44775;DHT22;31340;51.402;0.016;2024-01-30T15:10:07;10.90;99.90
44775;DHT22;31340;51.402;0.016;2024-01-30T15:12:36;10.90;99.90
44775;DHT22;31340;51.402;0.016;2024-01-30T15:15:07;10.90;99.90
44775;DHT22;31340;51.402;0.016;2024-01-30T15:17:36;10.90;99.90
44775;DHT22;31340;51.402;0.016;2024-01-30T15:20:04;10.90;99.90
44775;DHT22;31340;51.402;0.016;2024-01-30T15:22:32;10.90;99.90
44775;DHT22;31340;51.402;0.016;2024-01-30T15:24:59;10.90;99.90
44775;DHT22;31340;51.402;0.016;2024-01-30T15:27:27;10.90;99.90
44775;DHT22;31340;51.402;0.016;2024-01-30T15:29:57;10.90;99.90
44775;DHT22;31340;51.402;0.016;2024-01-30T15:32:25;10.90;99.90
44775;DHT22;31340;51.402;0.016;2024-01-30T15:34:53;10.80;99.90
44775;DHT22;31340;51.402;0.016;2024-01-30T15:37:22;10.80;99.90
44775;DHT22;31340;51.402;0.016;2024-01-30T15:39:50;10.80;99.90
44775;DHT22;31340;51.402;0.016;2024-01-30T15:42:17;10.70;99.90